createdAt,value
2022-12-15T00:00:13.851Z,5.30
2022-12-15T00:03:34.490Z,5.45
2022-12-15T00:06:54.840Z,6.30
2022-12-15T00:10:14.754Z,5.63
2022-12-15T00:13:35.269Z,5.32
2022-12-15T00:16:55.507Z,7.68
2022-12-15T00:20:15.528Z,5.15
2022-12-15T00:23:35.399Z,7.50
2022-12-15T00:26:55.323Z,4.05
2022-12-15T00:30:15.199Z,5.00
2022-12-15T00:33:35.663Z,4.03
2022-12-15T00:36:55.730Z,5.65
2022-12-15T00:39:59.849Z,4.55
2022-12-15T00:43:01.390Z,5.38
2022-12-15T00:46:22.431Z,4.88
2022-12-15T00:49:45.150Z,4.65
2022-12-15T00:53:04.861Z,4.20
2022-12-15T00:56:28.704Z,4.30
2022-12-15T00:59:48.572Z,4.13
2022-12-15T01:03:08.449Z,3.80
2022-12-15T01:06:31.703Z,4.70
2022-12-15T01:09:51.517Z,3.85
2022-12-15T01:13:11.948Z,4.10
2022-12-15T01:16:33.946Z,4.88
2022-12-15T01:19:53.978Z,3.83
2022-12-15T01:22:56.037Z,4.28
2022-12-15T01:25:57.525Z,4.28
2022-12-15T01:28:59.583Z,5.22
2022-12-15T01:32:01.109Z,5.05
2022-12-15T01:35:04.200Z,3.63
2022-12-15T01:38:05.910Z,4.60
2022-12-15T01:41:12.393Z,3.75
2022-12-15T01:47:23.561Z,3.75
2022-12-15T01:50:26.794Z,5.43
2022-12-15T01:53:32.563Z,3.78
2022-12-15T01:56:38.912Z,4.28
2022-12-15T01:59:46.084Z,3.40
2022-12-15T02:02:47.841Z,3.60
2022-12-15T02:05:49.448Z,4.32
2022-12-15T02:08:54.427Z,3.92
2022-12-15T02:12:24.638Z,3.60
2022-12-15T02:15:54.815Z,3.03
2022-12-15T02:19:33.478Z,3.28
2022-12-15T02:23:06.132Z,3.50
2022-12-15T02:26:34.968Z,4.07
2022-12-15T02:29:39.373Z,3.08
2022-12-15T02:33:13.082Z,3.70
2022-12-15T02:36:28.996Z,3.85
2022-12-15T02:39:30.747Z,3.47
2022-12-15T02:42:35.791Z,3.20
2022-12-15T02:46:14.421Z,4.57
2022-12-15T02:49:31.103Z,3.80
2022-12-15T02:52:47.776Z,3.22
2022-12-15T02:56:18.949Z,3.80
2022-12-15T02:59:37.818Z,3.50
2022-12-15T03:02:44.250Z,3.90
2022-12-15T03:08:49.907Z,3.42
2022-12-15T03:11:51.432Z,3.20
2022-12-15T03:14:53.208Z,3.33
2022-12-15T03:17:54.691Z,3.58
2022-12-15T03:20:56.207Z,3.90
2022-12-15T03:23:57.664Z,2.70
2022-12-15T03:26:59.545Z,3.15
2022-12-15T03:30:01.105Z,3.35
2022-12-15T03:33:02.678Z,3.50
2022-12-15T03:36:04.916Z,3.58
2022-12-15T03:39:06.795Z,3.38
2022-12-15T03:42:08.496Z,2.88
2022-12-15T03:45:10.112Z,3.38
2022-12-15T03:48:11.590Z,3.33
2022-12-15T03:51:13.053Z,3.50
2022-12-15T03:54:14.636Z,3.88
2022-12-15T03:57:16.171Z,3.22
2022-12-15T04:00:19.900Z,2.90
2022-12-15T04:03:21.676Z,2.92
2022-12-15T04:06:23.836Z,3.95
2022-12-15T04:09:25.494Z,3.35
2022-12-15T04:12:26.963Z,4.65
2022-12-15T04:15:28.719Z,2.83
2022-12-15T04:18:30.217Z,3.00
2022-12-15T04:21:31.686Z,3.28
2022-12-15T04:24:51.964Z,3.47
2022-12-15T04:28:12.309Z,3.30
2022-12-15T04:31:36.800Z,2.95
2022-12-15T04:34:57.128Z,2.70
2022-12-15T04:38:16.926Z,3.58
2022-12-15T04:41:39.320Z,3.15
2022-12-15T04:44:59.865Z,3.30
2022-12-15T04:48:19.617Z,2.75
2022-12-15T04:51:39.707Z,3.33
2022-12-15T04:54:59.767Z,2.88
2022-12-15T04:58:24.240Z,2.97
2022-12-15T05:01:44.210Z,3.13
2022-12-15T05:05:04.462Z,3.60
2022-12-15T05:08:24.382Z,2.90
2022-12-15T05:11:44.555Z,2.92
2022-12-15T05:15:04.238Z,2.90
2022-12-15T05:18:24.009Z,3.85
2022-12-15T05:21:43.840Z,3.35
2022-12-15T05:25:03.844Z,2.90
2022-12-15T05:28:25.514Z,3.25
2022-12-15T05:31:45.937Z,3.42
2022-12-15T05:34:47.427Z,3.05
2022-12-15T05:37:48.953Z,3.22
2022-12-15T05:40:50.411Z,3.83
2022-12-15T05:43:51.983Z,2.85
2022-12-15T05:46:53.780Z,3.40
2022-12-15T05:49:55.379Z,2.63
2022-12-15T05:52:58.574Z,3.22
2022-12-15T05:56:15.947Z,3.95
2022-12-15T05:59:19.108Z,2.95
2022-12-15T06:02:20.723Z,3.78
2022-12-15T06:05:22.212Z,4.35
2022-12-15T06:08:24.002Z,3.17
2022-12-15T06:11:25.530Z,4.07
2022-12-15T06:14:26.948Z,3.30
2022-12-15T06:17:28.378Z,3.30
2022-12-15T06:20:29.866Z,6.68
2022-12-15T06:23:34.955Z,7.47
2022-12-15T06:26:38.971Z,3.38
2022-12-15T06:29:40.404Z,3.60
2022-12-15T06:32:41.836Z,4.13
2022-12-15T06:35:43.266Z,3.95
2022-12-15T06:38:45.483Z,3.78
2022-12-15T06:41:51.558Z,4.00
2022-12-15T06:44:53.008Z,4.47
2022-12-15T06:47:59.581Z,4.80
2022-12-15T06:51:05.187Z,4.95
2022-12-15T06:54:06.654Z,4.00
2022-12-15T06:57:08.392Z,4.13
2022-12-15T07:00:10.293Z,4.32
2022-12-15T07:03:17.732Z,4.25
2022-12-15T07:06:20.103Z,4.68
2022-12-15T07:09:21.543Z,3.53
2022-12-15T07:12:22.984Z,4.63
2022-12-15T07:15:25.027Z,3.35
2022-12-15T07:18:26.520Z,5.13
2022-12-15T07:21:28.017Z,4.38
2022-12-15T07:24:29.725Z,7.40
2022-12-15T07:27:31.250Z,3.92
2022-12-15T07:30:38.496Z,5.55
2022-12-15T07:33:40.547Z,4.55
2022-12-15T07:36:45.668Z,4.13
2022-12-15T07:39:50.153Z,4.47
2022-12-15T07:42:52.303Z,4.22
2022-12-15T07:45:53.965Z,5.35
2022-12-15T07:48:55.476Z,5.75
2022-12-15T07:51:58.436Z,4.78
2022-12-15T07:54:59.965Z,4.55
2022-12-15T07:58:01.459Z,5.05
2022-12-15T08:01:08.611Z,4.88
2022-12-15T08:04:10.385Z,6.22
2022-12-15T08:07:11.907Z,4.15
2022-12-15T08:10:13.463Z,4.30
2022-12-15T08:13:31.394Z,6.00
2022-12-15T08:16:37.316Z,3.72
2022-12-15T08:19:38.896Z,4.45
2022-12-15T08:22:40.774Z,3.92
2022-12-15T08:25:42.869Z,3.78
2022-12-15T08:28:45.728Z,4.25
2022-12-15T08:31:47.340Z,4.13
2022-12-15T08:34:49.632Z,7.88
2022-12-15T08:37:51.142Z,9.15
2022-12-15T08:40:52.644Z,10.90
2022-12-15T08:43:55.056Z,12.55
2022-12-15T08:46:56.560Z,26.17
2022-12-15T08:49:58.074Z,27.92
2022-12-15T08:53:29.065Z,22.00
2022-12-15T08:56:22.434Z,31.75
2022-12-15T08:59:24.040Z,38.17
2022-12-15T09:02:25.608Z,28.75
2022-12-15T09:05:27.625Z,27.17
2022-12-15T09:08:30.842Z,32.28
2022-12-15T09:11:32.493Z,34.13
2022-12-15T09:14:33.986Z,30.65
2022-12-15T09:17:35.503Z,30.00
2022-12-15T09:20:37.415Z,34.63
2022-12-15T09:23:39.744Z,39.65
2022-12-15T09:26:42.632Z,30.85
2022-12-15T09:29:44.100Z,30.58
2022-12-15T09:32:45.561Z,29.48
2022-12-15T09:35:51.979Z,27.33
2022-12-15T09:38:53.629Z,26.90
2022-12-15T09:41:59.067Z,23.60
2022-12-15T09:45:15.464Z,26.38
2022-12-15T09:48:21.318Z,28.88
2022-12-15T09:51:33.159Z,23.55
2022-12-15T09:54:34.756Z,26.85
2022-12-15T09:57:56.047Z,26.50
2022-12-15T10:01:09.966Z,22.92
2022-12-15T10:04:28.334Z,20.05
2022-12-15T10:07:37.070Z,19.90
2022-12-15T10:10:56.202Z,19.30
2022-12-15T10:14:21.552Z,24.55
2022-12-15T10:17:42.283Z,19.42
2022-12-15T10:20:43.794Z,16.83
2022-12-15T10:23:45.321Z,20.50
2022-12-15T10:30:12.651Z,23.15
2022-12-15T10:33:19.909Z,18.52
2022-12-15T10:36:21.635Z,16.00
2022-12-15T10:39:24.597Z,16.10
2022-12-15T10:42:27.487Z,13.10
2022-12-15T10:45:35.482Z,16.75
2022-12-15T10:48:37.515Z,15.68
2022-12-15T10:52:03.114Z,15.85
2022-12-15T10:55:40.473Z,14.75
2022-12-15T10:58:51.785Z,12.45
2022-12-15T11:01:54.830Z,12.80
2022-12-15T11:05:15.468Z,11.25
2022-12-15T11:08:17.576Z,12.52
2022-12-15T11:11:53.457Z,12.23
2022-12-15T11:14:56.072Z,13.57
2022-12-15T11:18:22.342Z,13.27
2022-12-15T11:21:23.746Z,11.65
2022-12-15T11:24:47.065Z,14.18
2022-12-15T11:27:54.466Z,12.05
2022-12-15T11:31:22.387Z,12.75
2022-12-15T11:34:31.377Z,11.27
2022-12-15T11:37:44.522Z,10.23
2022-12-15T11:40:46.012Z,13.00
2022-12-15T11:44:13.432Z,11.63
2022-12-15T11:50:25.007Z,10.85
2022-12-15T11:53:40.010Z,10.52
2022-12-15T11:56:52.752Z,9.75
2022-12-15T12:00:15.434Z,7.35
2022-12-15T12:04:25.001Z,11.23
2022-12-15T12:07:42.319Z,9.93
2022-12-15T12:11:18.556Z,10.75
2022-12-15T12:14:25.862Z,10.20
2022-12-15T12:17:41.355Z,11.40
2022-12-15T12:20:52.108Z,11.77
2022-12-15T12:23:56.462Z,9.52
2022-12-15T12:27:08.723Z,7.95
2022-12-15T12:30:17.520Z,9.00
2022-12-15T12:33:48.648Z,8.80
2022-12-15T12:36:51.740Z,8.32
2022-12-15T12:39:59.254Z,12.13
2022-12-15T12:43:02.205Z,10.10
2022-12-15T12:46:28.912Z,8.18
2022-12-15T12:49:37.062Z,9.77
2022-12-15T12:52:38.587Z,8.75
2022-12-15T12:55:42.306Z,7.68
2022-12-15T12:58:45.337Z,7.63
2022-12-15T13:01:50.344Z,9.05
2022-12-15T13:05:06.447Z,12.30
2022-12-15T13:08:08.680Z,9.98
2022-12-15T13:11:51.973Z,10.98
2022-12-15T13:14:54.619Z,8.93
2022-12-15T13:18:06.347Z,6.93
2022-12-15T13:21:35.353Z,10.60
2022-12-15T13:24:46.548Z,9.05
2022-12-15T13:27:56.178Z,9.52
2022-12-15T13:31:16.539Z,8.40
2022-12-15T13:34:23.427Z,8.80
2022-12-15T13:37:59.095Z,8.13
2022-12-15T13:41:00.594Z,5.68
2022-12-15T13:44:15.181Z,6.85
2022-12-15T13:47:23.528Z,8.88
2022-12-15T13:50:40.795Z,7.13
2022-12-15T13:53:51.745Z,9.18
2022-12-15T13:56:55.646Z,6.57
2022-12-15T14:00:05.094Z,6.05
2022-12-15T14:03:13.482Z,7.70
2022-12-15T14:06:15.746Z,8.25
2022-12-15T14:09:22.258Z,8.10
2022-12-15T14:15:29.518Z,6.70
2022-12-15T14:18:36.554Z,4.80
2022-12-15T14:21:38.000Z,7.30
2022-12-15T14:24:45.751Z,10.73
2022-12-15T14:27:50.955Z,7.28
2022-12-15T14:30:53.112Z,5.97
2022-12-15T14:34:06.672Z,6.55
2022-12-15T14:37:15.740Z,7.97
2022-12-15T14:40:22.406Z,9.65
2022-12-15T14:43:32.210Z,8.60
2022-12-15T14:46:34.470Z,5.13
2022-12-15T14:49:42.539Z,4.55
2022-12-15T14:52:44.816Z,9.48
2022-12-15T14:55:46.434Z,8.27
2022-12-15T14:58:55.448Z,6.55
2022-12-15T15:02:12.817Z,6.20
2022-12-15T15:05:27.656Z,6.53
2022-12-15T15:08:50.842Z,4.47
2022-12-15T15:12:18.241Z,6.50
2022-12-15T15:18:27.286Z,6.25
2022-12-15T15:21:34.015Z,6.78
2022-12-15T15:24:39.339Z,5.20
2022-12-15T15:27:40.844Z,5.80
2022-12-15T15:31:05.251Z,5.40
2022-12-15T15:34:06.915Z,6.43
2022-12-15T15:37:24.913Z,5.50
2022-12-15T15:40:26.454Z,7.15
2022-12-15T15:43:28.884Z,6.95
2022-12-15T15:46:34.316Z,5.38
2022-12-15T15:49:39.289Z,5.88
2022-12-15T15:52:41.688Z,7.65
2022-12-15T15:55:43.900Z,4.70
2022-12-15T15:58:45.568Z,7.25
2022-12-15T16:01:55.963Z,5.43
2022-12-15T16:04:57.623Z,6.70
2022-12-15T16:08:00.617Z,5.22
2022-12-15T16:11:02.477Z,4.25
2022-12-15T16:14:04.002Z,4.68
2022-12-15T16:17:09.476Z,6.60
2022-12-15T16:20:13.156Z,4.55
2022-12-15T16:23:17.046Z,5.07
2022-12-15T16:26:38.773Z,3.88
2022-12-15T16:29:41.167Z,4.38
2022-12-15T16:32:42.898Z,5.63
2022-12-15T16:35:45.270Z,3.80
2022-12-15T16:38:47.001Z,4.40
2022-12-15T16:41:48.554Z,7.85
2022-12-15T16:44:50.074Z,12.02
2022-12-15T16:47:52.194Z,14.30
2022-12-15T16:50:58.210Z,12.90
2022-12-15T16:53:59.909Z,12.88
2022-12-15T16:57:01.979Z,11.60
2022-12-15T17:00:15.003Z,8.73
2022-12-15T17:03:18.800Z,8.90
2022-12-15T17:06:20.485Z,7.00
2022-12-15T17:09:23.927Z,7.05
2022-12-15T17:12:25.446Z,7.03
2022-12-15T17:15:27.642Z,10.07
2022-12-15T17:18:29.364Z,6.15
2022-12-15T17:21:37.706Z,9.65
2022-12-15T17:24:44.149Z,8.00
2022-12-15T17:27:47.877Z,8.85
2022-12-15T17:30:50.663Z,7.43
2022-12-15T17:33:52.848Z,7.55
2022-12-15T17:36:55.124Z,11.07
2022-12-15T17:39:56.742Z,8.40
2022-12-15T17:42:58.252Z,7.55
2022-12-15T17:45:59.728Z,9.27
2022-12-15T17:49:01.225Z,9.05
2022-12-15T17:52:06.550Z,8.27
2022-12-15T17:55:33.324Z,7.43
2022-12-15T17:58:36.649Z,8.32
2022-12-15T18:01:38.174Z,7.57
2022-12-15T18:04:41.052Z,7.95
2022-12-15T18:07:42.775Z,8.93
2022-12-15T18:10:45.692Z,7.20
2022-12-15T18:13:47.206Z,7.72
2022-12-15T18:16:49.040Z,7.38
2022-12-15T18:19:50.588Z,7.18
2022-12-15T18:22:52.553Z,7.47
2022-12-15T18:25:56.181Z,7.13
2022-12-15T18:29:01.178Z,7.47
2022-12-15T18:32:02.685Z,10.60
2022-12-15T18:35:23.389Z,8.88
2022-12-15T18:38:27.129Z,7.25
2022-12-15T18:41:28.599Z,6.60
2022-12-15T18:44:31.841Z,7.43
2022-12-15T18:47:33.741Z,5.78
2022-12-15T18:50:35.340Z,6.75
2022-12-15T18:53:37.072Z,5.78
2022-12-15T18:56:38.552Z,6.38
2022-12-15T18:59:40.062Z,6.15
2022-12-15T19:02:42.202Z,8.57
2022-12-15T19:05:44.341Z,5.68
2022-12-15T19:08:46.231Z,5.68
2022-12-15T19:12:11.864Z,5.60
2022-12-15T19:15:18.338Z,5.75
2022-12-15T19:18:41.090Z,6.55
2022-12-15T19:21:54.587Z,5.50
2022-12-15T19:24:56.100Z,5.22
2022-12-15T19:27:59.786Z,4.97
2022-12-15T19:31:01.710Z,5.13
2022-12-15T19:34:03.216Z,4.70
2022-12-15T19:37:10.754Z,5.22
2022-12-15T19:40:30.401Z,5.65
2022-12-15T19:43:32.559Z,5.35
2022-12-15T19:46:34.350Z,5.53
2022-12-15T19:49:35.839Z,6.18
2022-12-15T19:52:38.193Z,5.20
2022-12-15T19:55:39.881Z,4.90
2022-12-15T19:58:41.754Z,4.88
2022-12-15T20:01:43.398Z,4.63
2022-12-15T20:04:45.266Z,5.03
2022-12-15T20:07:47.852Z,4.75
2022-12-15T20:10:50.672Z,5.72
2022-12-15T20:13:53.327Z,4.05
2022-12-15T20:16:54.866Z,5.40
2022-12-15T20:19:56.371Z,4.32
2022-12-15T20:23:01.482Z,5.15
2022-12-15T20:26:02.975Z,4.68
2022-12-15T20:29:07.398Z,5.85
2022-12-15T20:32:18.686Z,4.18
2022-12-15T20:35:21.722Z,4.30
2022-12-15T20:38:32.137Z,4.22
2022-12-15T20:41:34.020Z,4.40
2022-12-15T20:44:35.539Z,5.00
2022-12-15T20:47:40.838Z,4.85
2022-12-15T20:50:45.678Z,4.47
2022-12-15T20:53:47.735Z,5.10
2022-12-15T20:56:49.915Z,5.53
2022-12-15T20:59:51.394Z,4.82
2022-12-15T21:02:55.290Z,4.45
2022-12-15T21:05:58.692Z,4.85
2022-12-15T21:09:00.413Z,4.55
2022-12-15T21:12:05.869Z,4.53
2022-12-15T21:15:19.307Z,4.18
2022-12-15T21:18:57.621Z,4.30
2022-12-15T21:21:51.916Z,4.20
2022-12-15T21:24:55.797Z,4.75
2022-12-15T21:27:57.281Z,4.38
2022-12-15T21:30:58.825Z,4.60
2022-12-15T21:34:00.435Z,4.05
2022-12-15T21:37:03.327Z,4.82
2022-12-15T21:40:05.672Z,4.15
2022-12-15T21:43:07.500Z,5.43
2022-12-15T21:46:15.014Z,5.03
2022-12-15T21:49:18.461Z,4.20
2022-12-15T21:52:22.005Z,5.10
2022-12-15T21:55:26.860Z,4.03
2022-12-15T21:58:28.445Z,4.82
2022-12-15T22:01:31.649Z,4.07
2022-12-15T22:04:34.683Z,5.80
2022-12-15T22:07:36.129Z,4.38
2022-12-15T22:10:37.682Z,4.18
2022-12-15T22:13:39.221Z,3.80
2022-12-15T22:16:40.675Z,4.03
2022-12-15T22:19:42.110Z,3.85
2022-12-15T22:22:44.699Z,3.92
2022-12-15T22:25:49.831Z,4.60
2022-12-15T22:28:54.201Z,5.40
2022-12-15T22:31:56.286Z,4.88
2022-12-15T22:34:57.765Z,4.78
2022-12-15T22:37:59.532Z,4.40
2022-12-15T22:41:01.525Z,4.60
2022-12-15T22:44:03.062Z,3.67
2022-12-15T22:47:06.543Z,3.92
2022-12-15T22:50:13.935Z,3.95
2022-12-15T22:53:17.594Z,3.90
2022-12-15T22:56:24.708Z,5.57
2022-12-15T22:59:34.390Z,4.70
2022-12-15T23:02:38.986Z,4.05
2022-12-15T23:05:41.822Z,4.15
2022-12-15T23:08:43.304Z,4.32
2022-12-15T23:11:44.946Z,3.75
2022-12-15T23:15:04.848Z,4.28
2022-12-15T23:18:06.362Z,3.95
2022-12-15T23:21:09.365Z,3.90
2022-12-15T23:24:11.008Z,4.10
2022-12-15T23:27:12.651Z,3.70
2022-12-15T23:30:14.619Z,4.03
2022-12-15T23:33:16.347Z,4.28
2022-12-15T23:36:17.799Z,3.55
2022-12-15T23:39:19.284Z,3.88
2022-12-15T23:42:20.759Z,3.58
2022-12-15T23:45:22.572Z,3.80
2022-12-15T23:48:24.925Z,3.83
2022-12-15T23:51:26.428Z,3.92
2022-12-15T23:54:27.949Z,3.85
2022-12-15T23:57:29.507Z,4.18
